Time;durP1;ratioP1;P1;durP2;ratioP2;P2;SDS_P1;SDS_P2;PMS_P1;PMS_P2;Temp;Humidity;BMP_temperature;BMP_pressure;BME280_temperature;BME280_humidity;BME280_pressure;Samples;Min_cycle;Max_cycle;Signal;HPM_P1;HPM_P2
2022/07/01 00:01:57;;;;;;;13.23;7.00;;;13.70;99.90;;;;;;5094204;28;20182;-68
2022/07/01 00:04:26;;;;;;;12.87;7.10;;;13.60;99.90;;;;;;5094720;28;20208;-68
2022/07/01 00:06:55;;;;;;;10.30;6.63;;;13.60;99.90;;;;;;5094646;28;20215;-68
2022/07/01 00:09:21;;;;;;;11.33;7.10;;;13.70;99.90;;;;;;5094799;28;20611;-68
2022/07/01 00:11:47;;;;;;;10.00;6.93;;;13.60;99.90;;;;;;5094644;28;20258;-68
2022/07/01 00:14:13;;;;;;;10.13;7.17;;;13.70;99.90;;;;;;5094230;28;20674;-68
2022/07/01 00:16:40;;;;;;;12.27;7.50;;;13.60;99.90;;;;;;5094629;28;20230;-68
2022/07/01 00:19:06;;;;;;;10.43;7.50;;;13.60;99.90;;;;;;5094680;28;20176;-68
2022/07/01 00:21:32;;;;;;;11.53;7.63;;;13.60;99.90;;;;;;5094696;28;20268;-68
2022/07/01 00:23:58;;;;;;;11.30;6.50;;;13.50;99.90;;;;;;5094563;28;20184;-68
2022/07/01 00:26:23;;;;;;;12.03;7.83;;;13.50;99.90;;;;;;5094540;28;20576;-68
2022/07/01 00:28:49;;;;;;;13.93;7.13;;;13.50;99.90;;;;;;5094068;28;20611;-68
2022/07/01 00:31:15;;;;;;;13.43;7.80;;;13.50;99.90;;;;;;5093107;28;20214;-68
2022/07/01 00:33:40;;;;;;;14.60;8.07;;;13.50;99.90;;;;;;5094023;28;20257;-68
2022/07/01 00:36:06;;;;;;;14.83;8.40;;;13.60;99.90;;;;;;5094359;28;20671;-68
2022/07/01 00:38:31;;;;;;;11.30;8.20;;;13.50;99.90;;;;;;5092916;28;20654;-68
2022/07/01 00:40:57;;;;;;;13.47;8.47;;;13.60;99.90;;;;;;5094287;28;20256;-68
2022/07/01 00:43:24;;;;;;;12.63;8.37;;;13.60;99.90;;;;;;5093664;28;20179;-68
2022/07/01 00:45:51;;;;;;;12.60;8.07;;;13.60;99.90;;;;;;5094200;28;20255;-68
2022/07/01 00:48:19;;;;;;;10.17;8.23;;;13.50;99.90;;;;;;5094132;28;20171;-68
2022/07/01 00:50:45;;;;;;;16.43;9.13;;;13.50;99.90;;;;;;5093949;28;20529;-68
2022/07/01 00:53:12;;;;;;;12.53;8.53;;;13.50;99.90;;;;;;5093719;28;20219;-68
2022/07/01 00:55:38;;;;;;;14.77;8.67;;;13.60;99.90;;;;;;5094065;28;20171;-68
2022/07/01 00:58:03;;;;;;;17.70;9.43;;;13.50;99.90;;;;;;5093548;28;20529;-68
2022/07/01 01:00:29;;;;;;;15.43;8.97;;;13.60;99.90;;;;;;5093517;28;20203;-68
2022/07/01 01:02:55;;;;;;;18.03;9.07;;;13.60;99.90;;;;;;5092490;28;20175;-68
2022/07/01 01:05:21;;;;;;;16.43;9.20;;;13.50;99.90;;;;;;5092621;28;20203;-68
2022/07/01 01:07:50;;;;;;;27.50;9.50;;;13.50;99.90;;;;;;5093539;28;20235;-68
2022/07/01 01:10:17;;;;;;;17.83;9.13;;;13.40;99.90;;;;;;5093334;28;20172;-68
2022/07/01 01:12:43;;;;;;;18.47;9.40;;;13.40;99.90;;;;;;5092686;28;20238;-68
2022/07/01 01:15:10;;;;;;;18.73;9.73;;;13.40;99.90;;;;;;5093579;28;20635;-68
2022/07/01 01:17:37;;;;;;;17.00;9.23;;;13.40;99.90;;;;;;5093556;28;20171;-68
2022/07/01 01:20:03;;;;;;;16.07;9.90;;;13.40;99.90;;;;;;5092228;28;20172;-68
2022/07/01 01:22:29;;;;;;;16.77;9.23;;;13.50;99.90;;;;;;5092150;28;20542;-68
2022/07/01 01:24:57;;;;;;;17.90;9.77;;;13.50;99.90;;;;;;5093252;28;20172;-68
2022/07/01 01:27:23;;;;;;;13.33;9.10;;;13.50;99.90;;;;;;5093579;28;20257;-67
2022/07/01 01:29:48;;;;;;;16.47;8.57;;;13.50;99.90;;;;;;5093525;28;20175;-67
2022/07/01 01:32:14;;;;;;;18.47;9.57;;;13.50;99.90;;;;;;5093292;28;20194;-68
2022/07/01 01:34:40;;;;;;;14.20;9.27;;;13.60;99.90;;;;;;5093238;28;20175;-67
2022/07/01 01:37:07;;;;;;;16.93;9.07;;;13.60;99.90;;;;;;5093298;28;20623;-68
2022/07/01 01:39:32;;;;;;;17.27;9.33;;;13.60;99.90;;;;;;5092973;28;20286;-68
2022/07/01 01:41:58;;;;;;;19.00;9.73;;;13.70;99.90;;;;;;5093252;28;20255;-68
2022/07/01 01:44:24;;;;;;;14.87;9.07;;;13.70;99.90;;;;;;5093040;28;20172;-68
2022/07/01 01:46:49;;;;;;;16.40;9.47;;;13.60;99.90;;;;;;5093324;28;20174;-68
2022/07/01 01:49:15;;;;;;;15.83;9.43;;;13.70;99.90;;;;;;5093346;28;20510;-67
2022/07/01 01:51:41;;;;;;;16.33;9.43;;;13.80;99.90;;;;;;5091880;28;20182;-68
2022/07/01 01:54:07;;;;;;;12.33;8.90;;;13.70;99.90;;;;;;5092541;28;20545;-68
2022/07/01 01:56:33;;;;;;;15.83;8.63;;;13.70;99.90;;;;;;5093135;28;20178;-68
2022/07/01 01:58:59;;;;;;;16.67;8.90;;;13.70;99.90;;;;;;5093020;28;20255;-68
2022/07/01 02:01:25;;;;;;;17.30;9.47;;;13.70;99.90;;;;;;5093208;28;20270;-68
2022/07/01 02:03:52;;;;;;;17.43;9.07;;;13.70;99.90;;;;;;5093093;28;20168;-68
2022/07/01 02:06:20;;;;;;;14.53;9.03;;;13.80;99.90;;;;;;5093096;28;20172;-68
2022/07/01 02:08:46;;;;;;;12.97;9.03;;;13.80;99.90;;;;;;5092342;28;20219;-68
2022/07/01 02:11:11;;;;;;;14.57;8.27;;;13.80;99.90;;;;;;5093154;28;20221;-68
2022/07/01 02:13:38;;;;;;;15.83;8.80;;;13.80;99.90;;;;;;5092812;28;20328;-67
2022/07/01 02:16:04;;;;;;;16.93;8.57;;;13.80;99.90;;;;;;5092899;28;20168;-67
2022/07/01 02:18:32;;;;;;;17.47;9.07;;;13.90;99.90;;;;;;5092974;28;20229;-67
2022/07/01 02:20:58;;;;;;;17.30;9.10;;;14.00;99.90;;;;;;5093008;28;20258;-68
2022/07/01 02:23:23;;;;;;;12.97;8.47;;;13.90;99.90;;;;;;5092821;28;20250;-68
2022/07/01 02:25:49;;;;;;;13.73;8.60;;;13.80;99.90;;;;;;5095497;28;20252;-68
2022/07/01 02:28:15;;;;;;;16.63;8.90;;;13.80;99.90;;;;;;5096750;28;20171;-68
2022/07/01 02:30:41;;;;;;;16.60;8.87;;;13.80;99.90;;;;;;5096814;28;20172;-68
2022/07/01 02:33:08;;;;;;;13.70;9.10;;;13.80;99.90;;;;;;5096533;28;20196;-69
2022/07/01 02:35:39;;;;;;;14.70;8.43;;;13.70;99.90;;;;;;5096671;28;20217;-68
2022/07/01 02:38:07;;;;;;;15.07;8.53;;;13.70;99.90;;;;;;5094853;28;20265;-68
2022/07/01 02:40:34;;;;;;;13.90;9.10;;;13.80;99.90;;;;;;5096276;28;20172;-68
2022/07/01 02:43:00;;;;;;;13.03;7.47;;;13.80;99.90;;;;;;5095120;28;20171;-68
2022/07/01 02:45:26;;;;;;;17.07;8.30;;;13.70;99.90;;;;;;5096659;28;20269;-68
2022/07/01 02:47:51;;;;;;;15.20;8.17;;;13.70;99.90;;;;;;5096286;28;20164;-68
2022/07/01 02:50:18;;;;;;;14.17;8.30;;;13.70;99.90;;;;;;5096162;28;20156;-68
2022/07/01 02:52:45;;;;;;;12.63;8.00;;;13.70;99.90;;;;;;5094633;28;20247;-69
2022/07/01 02:55:13;;;;;;;15.60;8.03;;;13.60;99.90;;;;;;5096522;28;20164;-69
2022/07/01 02:57:40;;;;;;;13.40;7.70;;;13.60;99.90;;;;;;5096248;28;20172;-68
2022/07/01 03:00:08;;;;;;;13.63;7.73;;;13.60;99.90;;;;;;5096184;28;20246;-68
2022/07/01 03:02:34;;;;;;;10.33;7.33;;;13.60;99.90;;;;;;5096141;28;20176;-68
2022/07/01 03:05:00;;;;;;;8.43;7.00;;;13.60;99.90;;;;;;5095871;28;20199;-68
2022/07/01 03:07:25;;;;;;;13.37;7.30;;;13.50;99.90;;;;;;5095411;28;20251;-68
2022/07/01 03:09:51;;;;;;;14.80;7.57;;;13.50;99.90;;;;;;5095939;28;20525;-68
2022/07/01 03:12:29;;;;;;;14.10;7.40;;;13.50;99.90;;;;;;5095914;28;20285;-68
2022/07/01 03:14:56;;;;;;;12.63;7.13;;;13.50;99.90;;;;;;5095773;28;20278;-68
2022/07/01 03:17:23;;;;;;;11.50;6.90;;;13.50;99.90;;;;;;5095911;28;20180;-68
2022/07/01 03:19:49;;;;;;;9.63;7.20;;;13.50;99.90;;;;;;5094185;28;20164;-68
2022/07/01 03:22:14;;;;;;;12.13;7.40;;;13.60;99.90;;;;;;5095102;28;20631;-68
2022/07/01 03:24:40;;;;;;;13.17;7.43;;;13.50;99.90;;;;;;5095574;28;20188;-67
2022/07/01 03:27:06;;;;;;;9.77;7.43;;;13.50;99.90;;;;;;5095838;28;20246;-67
2022/07/01 03:29:31;;;;;;;11.10;8.10;;;13.40;99.90;;;;;;5095599;28;20660;-68
2022/07/01 03:31:57;;;;;;;19.77;10.53;;;13.40;99.90;;;;;;5094857;28;20168;-68
2022/07/01 03:34:23;;;;;;;20.17;11.83;;;13.40;99.90;;;;;;5094973;28;20266;-68
2022/07/01 03:36:48;;;;;;;16.93;10.97;;;13.50;99.90;;;;;;5093841;28;20172;-68
2022/07/01 03:39:14;;;;;;;18.03;12.33;;;13.50;99.90;;;;;;5095564;28;20172;-68
2022/07/01 03:41:40;;;;;;;20.47;13.40;;;13.50;99.90;;;;;;5095296;28;20553;-68
2022/07/01 03:44:08;;;;;;;21.60;13.80;;;13.50;99.90;;;;;;5095030;28;20255;-68
2022/07/01 03:46:35;;;;;;;15.47;10.57;;;13.60;99.90;;;;;;5095066;28;20176;-68
2022/07/01 03:49:01;;;;;;;13.53;9.20;;;13.60;99.90;;;;;;5095352;28;20275;-68
2022/07/01 03:51:28;;;;;;;19.93;9.30;;;13.60;99.90;;;;;;5094113;28;20168;-68
2022/07/01 03:56:38;;;;;;;11.80;8.20;;;13.60;99.90;;;;;;5094885;28;20214;-67
2022/07/01 03:59:03;;;;;;;10.63;7.73;;;13.60;99.90;;;;;;5094475;28;20627;-67
2022/07/01 04:01:29;;;;;;;15.77;7.70;;;13.70;99.90;;;;;;5095053;28;20168;-68
2022/07/01 04:03:54;;;;;;;15.10;8.27;;;13.70;99.90;;;;;;5094342;28;20176;-68
2022/07/01 04:06:21;;;;;;;11.63;7.77;;;13.70;99.90;;;;;;5094413;28;20164;-68
2022/07/01 04:08:48;;;;;;;10.80;8.03;;;13.70;99.90;;;;;;5094610;28;20223;-68
2022/07/01 04:11:14;;;;;;;12.53;7.80;;;13.70;99.90;;;;;;5094568;28;20172;-69
2022/07/01 04:13:40;;;;;;;14.80;8.20;;;13.70;99.90;;;;;;5094034;28;20238;-67
2022/07/01 04:16:06;;;;;;;12.20;8.00;;;13.80;99.90;;;;;;5094460;28;20634;-68
2022/07/01 04:18:32;;;;;;;17.57;8.73;;;13.90;99.90;;;;;;5093383;28;20203;-67
2022/07/01 04:23:42;;;;;;;17.97;8.90;;;14.00;99.90;;;;;;5094596;28;20535;-68
2022/07/01 04:26:08;;;;;;;10.77;7.83;;;13.90;99.90;;;;;;5094418;28;20164;-67
2022/07/01 04:28:34;;;;;;;14.07;8.00;;;13.80;99.90;;;;;;5092961;28;20305;-68
2022/07/01 04:30:59;;;;;;;11.80;8.13;;;13.90;99.90;;;;;;5094171;28;20164;-68
2022/07/01 04:33:25;;;;;;;14.77;8.40;;;13.90;99.90;;;;;;5093480;28;20215;-68
2022/07/01 04:35:51;;;;;;;10.17;8.10;;;14.00;99.90;;;;;;5092772;28;20255;-67
2022/07/01 04:38:17;;;;;;;10.83;7.43;;;14.10;99.90;;;;;;5093829;28;20267;-67
2022/07/01 04:41:58;;;;;;;12.83;7.23;;;14.00;99.90;;;;;;5093459;28;20172;-67
2022/07/01 04:43:28;;;;;;;11.93;6.63;;;14.00;99.90;;;;;;5093802;28;20680;-67
2022/07/01 04:45:55;;;;;;;13.87;6.40;;;13.90;99.90;;;;;;5093788;28;20172;-68
2022/07/01 04:48:21;;;;;;;12.70;5.80;;;14.00;99.90;;;;;;5092967;28;20168;-68
2022/07/01 04:50:46;;;;;;;7.77;4.50;;;14.00;99.90;;;;;;5093823;28;20168;-68
2022/07/01 04:53:13;;;;;;;9.33;4.07;;;14.20;99.90;;;;;;5093345;28;20655;-68
2022/07/01 04:55:39;;;;;;;9.07;4.27;;;14.40;99.90;;;;;;5093117;28;20176;-68
2022/07/01 04:58:04;;;;;;;6.57;4.03;;;14.80;99.90;;;;;;5092734;28;20234;-68
2022/07/01 05:00:30;;;;;;;5.53;3.27;;;15.60;99.90;;;;;;5093130;28;20203;-69
2022/07/01 05:02:56;;;;;;;5.33;3.20;;;16.80;88.80;;;;;;5093030;28;20615;-69
2022/07/01 05:05:21;;;;;;;7.80;3.27;;;18.00;20.70;;;;;;5093129;28;20197;-69
2022/07/01 05:07:47;;;;;;;8.47;2.90;;;19.70;1.00;;;;;;5092320;28;20234;-68
2022/07/01 05:10:13;;;;;;;4.23;2.50;;;20.60;1.00;;;;;;5092218;28;20632;-68
2022/07/01 05:12:39;;;;;;;7.28;2.60;;;21.80;99.90;;;;;;5092569;28;20310;-68
2022/07/01 05:15:06;;;;;;;7.20;2.83;;;20.90;41.40;;;;;;5092618;28;20179;-68
2022/07/01 05:23:00;;;;;;;17.67;5.63;;;18.80;1.00;;;;;;5091984;28;20179;-68
2022/07/01 05:25:26;;;;;;;11.10;3.20;;;18.40;1.00;;;;;;5092212;28;20168;-68
2022/07/01 05:27:51;;;;;;;5.27;2.80;;;17.60;1.00;;;;;;5092412;28;20631;-68
2022/07/01 05:30:17;;;;;;;4.73;2.60;;;17.90;1.00;;;;;;5092052;28;20168;-68
2022/07/01 05:32:42;;;;;;;9.70;3.27;;;18.70;1.00;;;;;;5090463;28;20196;-69
2022/07/01 05:35:08;;;;;;;6.97;2.25;;;20.40;1.00;;;;;;5091842;28;20171;-69
2022/07/01 05:37:33;;;;;;;6.13;2.50;;;21.60;99.90;;;;;;5092613;28;20172;-69
2022/07/01 05:39:59;;;;;;;7.53;2.03;;;23.00;99.90;;;;;;5092529;28;20576;-69
2022/07/01 05:42:25;;;;;;;8.93;2.45;;;24.10;99.90;;;;;;5092410;28;20250;-69
2022/07/01 05:44:50;;;;;;;5.00;2.50;;;24.70;99.90;;;;;;5091831;28;20260;-69
2022/07/01 05:47:16;;;;;;;7.30;2.10;;;25.70;99.90;;;;;;5092470;28;20164;-70
2022/07/01 05:49:41;;;;;;;5.03;2.17;;;26.80;1.00;;;;;;5091851;28;20718;-69
2022/07/01 05:52:07;;;;;;;6.32;2.25;;;26.70;1.00;;;;;;5091695;28;20335;-70
2022/07/01 05:54:33;;;;;;;6.43;2.55;;;27.90;1.00;;;;;;5091262;28;20192;-70
2022/07/01 05:56:58;;;;;;;4.43;2.50;;;28.10;99.90;;;;;;5091994;28;20183;-70
2022/07/01 05:59:24;;;;;;;9.38;2.50;;;28.30;99.90;;;;;;5093785;28;20163;-70
2022/07/01 06:01:50;;;;;;;3.60;2.30;;;29.10;99.90;;;;;;5094966;28;20164;-70
2022/07/01 06:04:16;;;;;;;4.43;2.70;;;28.60;99.90;;;;;;5095518;28;20168;-69
2022/07/01 06:06:42;;;;;;;4.82;2.40;;;28.40;99.90;;;;;;5095325;28;20176;-70
2022/07/01 06:09:08;;;;;;;5.85;2.20;;;28.40;99.90;;;;;;5095972;28;20339;-70
2022/07/01 06:11:33;;;;;;;4.45;2.22;;;29.20;99.90;;;;;;5095801;28;20164;-70
2022/07/01 06:13:59;;;;;;;8.63;2.47;;;29.40;99.90;;;;;;5095731;28;20196;-70
2022/07/01 06:16:25;;;;;;;7.50;2.50;;;30.40;99.90;;;;;;5094795;28;20253;-70
2022/07/01 06:18:50;;;;;;;4.32;2.38;;;30.70;99.90;;;;;;5095975;28;20653;-70
2022/07/01 06:21:16;;;;;;;5.72;2.55;;;31.30;99.90;;;;;;5096401;28;20619;-70
2022/07/01 06:23:42;;;;;;;4.03;2.20;;;30.90;99.90;;;;;;5095427;28;20594;-70
2022/07/01 06:26:08;;;;;;;5.15;2.58;;;30.00;99.90;;;;;;5095767;28;20284;-70
2022/07/01 06:28:35;;;;;;;5.13;2.15;;;29.60;99.90;;;;;;5096058;28;20168;-70
2022/07/01 06:31:00;;;;;;;5.63;2.40;;;30.10;99.90;;;;;;5095334;28;20654;-71
2022/07/01 06:33:29;;;;;;;8.50;2.65;;;30.50;99.90;;;;;;5093721;28;20211;-71
2022/07/01 06:35:55;;;;;;;5.38;2.50;;;31.20;99.90;;;;;;5096035;28;20245;-71
2022/07/01 06:38:20;;;;;;;2.58;2.05;;;31.20;99.90;;;;;;5095441;28;20172;-71
2022/07/01 06:41:26;;;;;;;4.90;2.67;;;31.40;99.90;;;;;;5095379;28;20209;-71
2022/07/01 06:43:31;;;;;;;4.90;2.22;;;30.00;99.90;;;;;;5095265;28;20225;-70
2022/07/01 06:45:57;;;;;;;6.03;2.63;;;29.70;99.90;;;;;;5095376;28;20160;-71
2022/07/01 06:48:22;;;;;;;5.40;2.15;;;30.10;99.90;;;;;;5095136;28;20172;-72
2022/07/01 06:50:48;;;;;;;5.20;2.08;;;31.30;99.90;;;;;;5094330;28;20266;-71
2022/07/01 06:53:14;;;;;;;5.18;2.20;;;30.50;99.90;;;;;;5095358;28;20738;-71
2022/07/01 06:55:39;;;;;;;3.20;1.80;;;30.50;99.90;;;;;;5095671;28;20164;-71
2022/07/01 06:58:05;;;;;;;6.25;2.63;;;28.80;99.90;;;;;;5094201;28;20176;-71
2022/07/01 07:00:31;;;;;;;9.27;2.30;;;28.70;99.90;;;;;;5095287;28;20293;-71
2022/07/01 07:02:56;;;;;;;4.72;2.15;;;28.00;99.90;;;;;;5095400;28;20203;-71
2022/07/01 07:05:22;;;;;;;4.95;2.33;;;28.00;99.90;;;;;;5095261;28;20191;-71
2022/07/01 07:07:47;;;;;;;4.25;1.90;;;27.50;99.90;;;;;;5095404;28;20226;-70
2022/07/01 07:10:13;;;;;;;3.47;1.80;;;27.10;99.90;;;;;;5095413;28;20639;-70
2022/07/01 07:12:38;;;;;;;5.35;1.77;;;26.70;99.90;;;;;;5095183;28;20211;-71
2022/07/01 07:15:05;;;;;;;7.00;1.90;;;27.40;99.90;;;;;;5094663;28;20225;-71
2022/07/01 07:17:31;;;;;;;4.10;1.80;;;27.50;99.90;;;;;;5095642;28;20164;-71
2022/07/01 07:19:56;;;;;;;5.57;2.10;;;27.80;99.90;;;;;;5095443;28;20216;-71
2022/07/01 07:22:22;;;;;;;5.30;2.00;;;29.00;99.90;;;;;;5095071;28;20263;-71
2022/07/01 07:24:48;;;;;;;5.75;2.20;;;29.40;99.90;;;;;;5095318;28;20199;-72
2022/07/01 07:27:13;;;;;;;4.38;1.95;;;29.80;99.90;;;;;;5094533;28;20191;-72
2022/07/01 07:29:39;;;;;;;4.57;1.98;;;30.10;99.90;;;;;;5095207;28;20168;-71
2022/07/01 07:32:05;;;;;;;7.78;2.13;;;31.00;99.90;;;;;;5094497;28;20530;-72
2022/07/01 07:34:31;;;;;;;7.97;1.73;;;30.40;99.90;;;;;;5095482;28;20176;-70
2022/07/01 07:36:56;;;;;;;6.00;1.50;;;30.90;99.90;;;;;;5094907;28;20627;-72
2022/07/01 07:39:22;;;;;;;2.83;1.48;;;30.90;99.90;;;;;;5094701;28;20229;-70
2022/07/01 07:41:49;;;;;;;5.10;1.45;;;30.60;99.90;;;;;;5094206;28;20171;-72
2022/07/01 07:44:15;;;;;;;7.07;2.05;;;30.00;99.90;;;;;;5093146;28;20171;-70
2022/07/01 07:46:41;;;;;;;2.65;1.30;;;29.40;99.90;;;;;;5095107;28;20172;-70
2022/07/01 07:49:06;;;;;;;3.88;1.58;;;29.20;99.90;;;;;;5094026;28;20255;-71
2022/07/01 07:51:32;;;;;;;4.72;2.03;;;28.70;99.90;;;;;;5094346;28;20215;-71
2022/07/01 07:53:57;;;;;;;7.78;2.33;;;28.30;99.90;;;;;;5093954;28;20207;-70
2022/07/01 07:56:23;;;;;;;6.03;1.80;;;29.00;99.90;;;;;;5094688;28;20611;-71
2022/07/01 07:58:49;;;;;;;4.93;1.63;;;29.80;99.90;;;;;;5094270;28;20172;-70
2022/07/01 08:01:14;;;;;;;2.90;1.60;;;30.50;99.90;;;;;;5094360;28;20698;-71
2022/07/01 08:03:40;;;;;;;7.70;3.55;;;29.50;99.90;;;;;;5094078;28;20230;-71
2022/07/01 08:06:05;;;;;;;4.20;1.75;;;26.90;99.90;;;;;;5093393;28;20205;-70
2022/07/01 08:08:32;;;;;;;3.83;1.50;;;25.40;99.90;;;;;;5094340;28;20582;-69
2022/07/01 08:10:57;;;;;;;5.07;2.55;;;24.30;1.00;;;;;;5094265;28;20203;-69
2022/07/01 08:13:23;;;;;;;4.50;1.58;;;24.20;1.00;;;;;;5093699;28;20320;-69
2022/07/01 08:15:49;;;;;;;4.13;1.50;;;23.70;1.00;;;;;;5094149;28;20232;-69
2022/07/01 08:18:14;;;;;;;2.50;1.40;;;23.90;1.00;;;;;;5093826;28;20171;-69
2022/07/01 08:20:40;;;;;;;4.25;1.50;;;24.30;99.90;;;;;;5094444;28;20160;-69
2022/07/01 08:23:05;;;;;;;8.70;1.65;;;24.20;1.00;;;;;;5093297;28;20523;-70
2022/07/01 08:25:31;;;;;;;3.78;1.23;;;25.20;28.20;;;;;;5093952;28;20172;-71
2022/07/01 08:27:57;;;;;;;3.78;1.50;;;26.20;1.00;;;;;;5093633;28;20582;-71
2022/07/01 08:30:22;;;;;;;4.78;1.42;;;27.60;99.90;;;;;;5093762;28;20172;-70
2022/07/01 08:32:48;;;;;;;7.20;1.70;;;28.30;99.90;;;;;;5093809;28;20226;-70
2022/07/01 08:35:13;;;;;;;2.33;1.20;;;27.70;99.90;;;;;;5094105;28;20172;-70
2022/07/01 08:37:39;;;;;;;3.38;1.40;;;25.80;99.90;;;;;;5093151;28;20512;-69
2022/07/01 08:40:05;;;;;;;2.13;1.20;;;24.70;1.00;;;;;;5093634;28;20180;-69
2022/07/01 08:42:31;;;;;;;3.20;1.60;;;25.60;1.00;;;;;;5093516;28;20168;-70
2022/07/01 08:44:57;;;;;;;3.08;1.55;;;27.40;99.90;;;;;;5093557;28;20631;-70
2022/07/01 08:47:22;;;;;;;3.10;1.45;;;29.30;99.90;;;;;;5093349;28;20542;-71
2022/07/01 08:49:48;;;;;;;3.60;1.42;;;30.50;99.90;;;;;;5092645;28;20183;-71
2022/07/01 08:52:14;;;;;;;7.07;1.52;;;28.60;99.90;;;;;;5093214;28;20509;-71
2022/07/01 08:54:41;;;;;;;2.72;1.60;;;29.10;99.90;;;;;;5093129;28;20231;-71
2022/07/01 08:57:07;;;;;;;7.57;1.50;;;29.20;99.90;;;;;;5092457;28;20156;-70
2022/07/01 08:59:33;;;;;;;4.25;1.52;;;27.90;99.90;;;;;;5080722;28;20662;-72
2022/07/01 09:02:02;;;;;;;4.10;1.58;;;26.60;99.90;;;;;;5073875;28;20271;-70
2022/07/01 09:04:28;;;;;;;1.85;1.20;;;26.50;99.90;;;;;;5072236;28;20176;-72
2022/07/01 09:07:09;;;;;;;6.68;1.67;;;27.50;99.90;;;;;;5089281;28;20164;-73
2022/07/01 09:09:37;;;;;;;3.00;1.30;;;28.20;99.90;;;;;;5091776;28;20261;-73
2022/07/01 09:12:03;;;;;;;5.13;1.80;;;28.80;99.90;;;;;;5092861;28;20211;-73
2022/07/01 09:14:30;;;;;;;1.85;1.20;;;29.70;99.90;;;;;;5091481;28;20506;-73
2022/07/01 09:16:58;;;;;;;2.35;1.50;;;29.60;99.90;;;;;;5093401;28;20302;-71
2022/07/01 09:19:26;;;;;;;3.65;1.40;;;29.00;99.90;;;;;;5092743;28;20232;-72
2022/07/01 09:21:56;;;;;;;4.13;1.42;;;28.60;99.90;;;;;;5094328;28;20179;-70
2022/07/01 09:24:25;;;;;;;4.28;1.25;;;26.80;99.90;;;;;;5112835;28;20250;-70
2022/07/01 09:26:56;;;;;;;4.43;1.50;;;25.40;99.90;;;;;;5111961;28;20624;-71
2022/07/01 09:29:27;;;;;;;3.35;1.98;;;25.20;1.00;;;;;;5113219;28;20175;-72
2022/07/01 09:31:52;;;;;;;3.05;1.55;;;25.90;99.90;;;;;;5097607;28;20164;-73
2022/07/01 09:34:18;;;;;;;2.88;1.40;;;26.50;99.90;;;;;;5091096;28;20685;-72
2022/07/01 09:36:55;;;;;;;4.18;1.92;;;27.00;99.90;;;;;;5090587;28;20174;-73
2022/07/01 09:39:21;;;;;;;1.73;1.17;;;28.20;99.90;;;;;;5092195;28;20163;-71
2022/07/01 09:41:47;;;;;;;2.90;1.65;;;27.10;99.90;;;;;;5092744;28;20247;-71
2022/07/01 09:44:13;;;;;;;2.00;1.60;;;27.70;99.90;;;;;;5092070;28;20202;-72
2022/07/01 09:46:55;;;;;;;2.05;1.30;;;27.40;99.90;;;;;;5092697;28;20175;-71
2022/07/01 09:49:21;;;;;;;1.83;1.20;;;27.00;99.90;;;;;;5092737;28;20206;-73
2022/07/01 09:51:49;;;;;;;3.65;1.40;;;28.10;99.90;;;;;;5091222;28;20172;-72
2022/07/01 09:54:15;;;;;;;2.15;1.70;;;28.20;99.90;;;;;;5096205;28;20210;-72
2022/07/01 09:56:40;;;;;;;4.55;3.33;;;27.80;99.90;;;;;;5113097;28;20164;-69
2022/07/01 09:59:06;;;;;;;4.80;2.33;;;26.50;99.90;;;;;;5111953;28;20651;-71
2022/07/01 10:01:32;;;;;;;2.45;1.65;;;26.10;99.90;;;;;;5112443;28;20163;-71
2022/07/01 10:04:01;;;;;;;4.25;1.70;;;25.80;99.90;;;;;;5112536;28;20175;-71
2022/07/01 10:06:52;;;;;;;2.60;1.60;;;25.90;99.90;;;;;;5112567;28;20634;-70
2022/07/01 10:09:31;;;;;;;2.08;1.88;;;26.10;99.90;;;;;;5072044;28;20219;-71
2022/07/01 10:12:21;;;;;;;2.65;1.55;;;26.30;99.90;;;;;;5071171;28;20156;-71
2022/07/01 10:14:48;;;;;;;5.00;1.90;;;26.10;99.90;;;;;;5071885;28;20181;-72
2022/07/01 10:17:42;;;;;;;3.05;1.80;;;26.50;99.90;;;;;;5072223;28;20660;-72
2022/07/01 10:20:20;;;;;;;3.92;1.70;;;27.40;99.90;;;;;;5071114;28;20211;-72
2022/07/01 10:22:46;;;;;;;3.88;1.88;;;27.90;99.90;;;;;;5071558;28;20241;-71
2022/07/01 10:25:31;;;;;;;3.03;1.25;;;28.10;99.90;;;;;;5070933;28;20173;-71
2022/07/01 10:28:16;;;;;;;2.95;1.50;;;28.10;99.90;;;;;;5068956;28;20208;-72
2022/07/01 10:31:04;;;;;;;1.67;1.58;;;27.50;99.90;;;;;;5070507;28;20259;-71
2022/07/01 10:33:42;;;;;;;2.15;1.25;;;26.90;99.90;;;;;;5072094;28;20220;-71
2022/07/01 10:36:11;;;;;;;2.15;1.02;;;26.00;99.90;;;;;;5070106;28;20659;-70
2022/07/01 10:39:13;;;;;;;2.60;1.30;;;24.80;99.90;;;;;;5071593;28;20172;-69
2022/07/01 10:41:39;;;;;;;2.55;0.93;;;24.40;99.90;;;;;;5070754;28;20172;-70
2022/07/01 10:44:15;;;;;;;1.75;1.20;;;24.40;99.90;;;;;;5071710;28;20185;-70
2022/07/01 10:47:03;;;;;;;2.60;1.60;;;24.40;99.90;;;;;;5075047;28;20195;-70
2022/07/01 10:49:38;;;;;;;2.53;1.58;;;23.90;99.90;;;;;;5075398;28;20156;-70
2022/07/01 10:52:10;;;;;;;1.77;1.00;;;23.80;1.00;;;;;;5074331;28;20169;-69
2022/07/01 10:54:47;;;;;;;2.78;1.23;;;25.20;99.90;;;;;;5074524;28;20172;-69
2022/07/01 10:57:20;;;;;;;4.15;1.15;;;26.50;99.90;;;;;;5074833;28;20191;-70
2022/07/01 10:59:54;;;;;;;4.70;1.40;;;27.30;99.90;;;;;;5056123;28;20264;-70
2022/07/01 11:02:19;;;;;;;3.25;1.27;;;27.50;99.90;;;;;;5053839;28;20184;-71
2022/07/01 11:04:45;;;;;;;5.85;0.98;;;27.10;99.90;;;;;;5053352;28;20226;-69
2022/07/01 11:07:11;;;;;;;1.45;1.08;;;26.50;99.90;;;;;;5063097;28;20219;-69
2022/07/01 11:09:37;;;;;;;2.80;1.00;;;25.80;99.90;;;;;;5093819;28;20699;-69
2022/07/01 11:12:04;;;;;;;5.20;1.30;;;25.00;99.90;;;;;;5094234;28;20180;-70
2022/07/01 11:14:34;;;;;;;2.63;1.55;;;24.70;99.90;;;;;;5094854;28;20636;-70
2022/07/01 11:17:02;;;;;;;3.35;1.65;;;24.20;99.90;;;;;;5094542;28;20172;-69
2022/07/01 11:19:27;;;;;;;2.35;1.10;;;24.30;99.90;;;;;;5094294;28;20508;-70
2022/07/01 11:21:53;;;;;;;1.13;0.85;;;24.50;99.90;;;;;;5093280;28;20175;-70
2022/07/01 11:24:20;;;;;;;1.55;0.90;;;24.50;99.90;;;;;;5093359;28;20169;-70
2022/07/01 11:26:47;;;;;;;2.45;1.13;;;24.70;99.90;;;;;;5092891;28;20183;-69
2022/07/01 11:29:14;;;;;;;1.23;1.08;;;23.80;99.90;;;;;;5095261;28;20578;-69
2022/07/01 11:31:39;;;;;;;2.35;1.23;;;23.70;99.90;;;;;;5094620;28;20179;-69
2022/07/01 11:34:06;;;;;;;2.55;1.20;;;23.90;99.90;;;;;;5094642;28;20299;-69
2022/07/01 11:39:24;;;;;;;2.15;0.93;;;24.60;99.90;;;;;;5095112;28;20545;-68
2022/07/01 11:41:55;;;;;;;3.15;1.30;;;24.60;99.90;;;;;;5095047;28;20255;-68
2022/07/01 11:44:32;;;;;;;2.00;0.80;;;24.40;99.90;;;;;;5094923;28;20627;-69
2022/07/01 11:46:58;;;;;;;3.92;0.90;;;24.70;99.90;;;;;;5093593;28;20171;-69
2022/07/01 11:49:24;;;;;;;2.38;1.08;;;24.80;99.90;;;;;;5093309;28;20176;-69
2022/07/01 11:52:17;;;;;;;3.55;1.35;;;24.90;99.90;;;;;;5094641;28;20164;-69
2022/07/01 11:54:48;;;;;;;1.73;0.85;;;25.30;99.90;;;;;;5091305;28;20191;-69
2022/07/01 11:57:15;;;;;;;2.72;1.00;;;25.90;99.90;;;;;;5093709;28;20221;-69
2022/07/01 11:59:42;;;;;;;3.25;0.90;;;25.80;99.90;;;;;;5094126;28;20306;-69
2022/07/01 12:02:10;;;;;;;3.00;1.10;;;25.60;99.90;;;;;;5094360;28;20198;-69
2022/07/01 12:04:37;;;;;;;1.58;0.98;;;25.20;99.90;;;;;;5093557;28;20240;-69
2022/07/01 12:07:04;;;;;;;3.85;1.20;;;24.90;99.90;;;;;;5094431;28;20268;-69
2022/07/01 12:09:30;;;;;;;2.70;1.30;;;24.60;99.90;;;;;;5094371;28;20191;-69
2022/07/01 12:11:55;;;;;;;2.28;0.90;;;24.70;99.90;;;;;;5093492;28;20172;-69
2022/07/01 12:14:25;;;;;;;4.47;1.10;;;24.70;99.90;;;;;;5093583;28;20344;-68
2022/07/01 12:17:08;;;;;;;2.55;0.90;;;24.40;99.90;;;;;;5093240;28;20167;-68
2022/07/01 12:19:37;;;;;;;1.58;1.00;;;23.90;99.90;;;;;;5094062;28;20595;-68
2022/07/01 12:22:06;;;;;;;4.57;1.10;;;23.60;99.90;;;;;;5093819;28;20342;-68
2022/07/01 12:24:32;;;;;;;2.80;0.88;;;23.40;99.90;;;;;;5091688;28;20171;-68
2022/07/01 12:26:57;;;;;;;1.35;0.90;;;23.30;99.90;;;;;;5093672;28;20193;-70
2022/07/01 12:29:24;;;;;;;2.35;0.82;;;23.40;99.90;;;;;;5092734;28;20627;-68
2022/07/01 12:32:03;;;;;;;1.92;0.75;;;23.00;99.90;;;;;;5093222;28;20667;-68
2022/07/01 12:34:47;;;;;;;1.60;1.00;;;23.10;99.90;;;;;;5093352;28;20222;-69
2022/07/01 12:37:16;;;;;;;4.38;3.65;;;22.90;99.90;;;;;;5093407;28;20171;-68
2022/07/01 12:39:43;;;;;;;2.25;1.10;;;23.10;99.90;;;;;;5093294;28;20176;-68
2022/07/01 12:42:18;;;;;;;3.20;1.00;;;23.30;99.90;;;;;;5093573;28;20171;-68
2022/07/01 12:44:45;;;;;;;3.33;1.05;;;23.30;99.90;;;;;;5092855;28;20178;-68
2022/07/01 12:47:42;;;;;;;2.55;1.00;;;23.30;99.90;;;;;;5091466;28;20207;-68
2022/07/01 12:50:22;;;;;;;2.97;1.50;;;22.80;99.90;;;;;;5074841;28;20180;-68
2022/07/01 12:53:01;;;;;;;3.70;1.30;;;23.30;99.90;;;;;;5091427;28;20222;-68
2022/07/01 12:55:37;;;;;;;2.42;1.00;;;23.20;99.90;;;;;;5089795;28;20179;-68
2022/07/01 12:58:17;;;;;;;1.13;0.98;;;23.20;99.90;;;;;;5092050;28;20247;-69
2022/07/01 13:00:48;;;;;;;1.63;1.00;;;23.30;99.90;;;;;;5091072;28;20199;-69